Time;durP1;ratioP1;P1;durP2;ratioP2;P2;SDS_P1;SDS_P2;PMS_P1;PMS_P2;Temp;Humidity;BMP_temperature;BMP_pressure;BME280_temperature;BME280_humidity;BME280_pressure;Samples;Min_cycle;Max_cycle;Signal;HPM_P1;HPM_P2
2023/06/10 00:01:17;;;;;;;6.18;3.08;;;;;;;15.06;100.00;101705.31;10326473;28;20038;-68
2023/06/10 00:06:18;;;;;;;5.88;3.38;;;;;;;14.94;100.00;101701.88;10312879;28;20038;-69
2023/06/10 00:11:21;;;;;;;9.80;3.45;;;;;;;14.83;100.00;101708.47;10331416;28;20078;-68
2023/06/10 00:16:21;;;;;;;7.15;3.35;;;;;;;14.73;100.00;101721.09;10337412;28;20122;-68
2023/06/10 00:21:24;;;;;;;8.45;3.47;;;;;;;14.51;100.00;101709.19;10340573;28;20038;-68
2023/06/10 00:26:25;;;;;;;6.35;3.38;;;;;;;14.44;100.00;101725.19;10341024;28;20065;-69
2023/06/10 00:31:26;;;;;;;6.68;3.40;;;;;;;14.34;100.00;101720.38;10325957;28;20390;-67
2023/06/10 00:36:26;;;;;;;9.10;3.97;;;;;;;14.25;100.00;101720.00;10327170;28;20050;-68
2023/06/10 00:41:27;;;;;;;7.32;3.85;;;;;;;14.18;100.00;101719.38;10343822;28;20049;-69
2023/06/10 00:46:27;;;;;;;5.20;3.50;;;;;;;14.04;100.00;101712.53;10372717;28;20410;-68
2023/06/10 00:51:28;;;;;;;7.10;3.60;;;;;;;14.05;100.00;101728.88;10374446;28;20041;-68
2023/06/10 00:56:29;;;;;;;9.75;3.65;;;;;;;13.99;100.00;101724.34;10369401;28;20034;-67
2023/06/10 01:01:32;;;;;;;10.10;4.03;;;;;;;14.01;100.00;101726.88;10346750;28;20038;-68
2023/06/10 01:06:53;;;;;;;9.75;4.57;;;;;;;13.99;100.00;101724.34;10352813;28;20050;-68
2023/06/10 01:12:08;;;;;;;7.22;3.85;;;;;;;13.88;100.00;101717.84;10317952;28;20045;-68
2023/06/10 01:17:09;;;;;;;9.40;5.07;;;;;;;13.87;100.00;101732.78;10360956;28;20041;-68
2023/06/10 01:22:15;;;;;;;7.80;4.07;;;;;;;13.80;100.00;101736.84;10359928;28;20073;-68
2023/06/10 01:27:17;;;;;;;8.75;3.88;;;;;;;13.66;100.00;101730.81;10356094;28;20033;-69
2023/06/10 01:32:23;;;;;;;6.45;3.22;;;;;;;13.58;100.00;101728.47;10360038;28;20038;-68
2023/06/10 01:37:24;;;;;;;8.77;3.53;;;;;;;13.48;100.00;101724.47;10361250;28;20034;-68
2023/06/10 01:42:25;;;;;;;7.63;3.17;;;;;;;13.38;100.00;101737.31;10373777;28;20066;-69
2023/06/10 01:47:25;;;;;;;7.78;3.85;;;;;;;13.26;100.00;101742.88;10364112;28;20046;-68
2023/06/10 01:52:26;;;;;;;10.27;4.25;;;;;;;13.17;100.00;101747.16;10363544;28;20030;-68
2023/06/10 01:57:26;;;;;;;7.88;3.65;;;;;;;13.13;100.00;101750.44;10370406;28;20041;-68
2023/06/10 02:02:27;;;;;;;12.90;4.63;;;;;;;13.03;100.00;101744.72;10362783;28;20049;-68
2023/06/10 02:07:27;;;;;;;12.63;4.82;;;;;;;13.04;100.00;101751.94;10365152;28;20076;-68
2023/06/10 02:12:28;;;;;;;8.05;4.38;;;;;;;12.98;100.00;101749.31;10370176;28;20034;-67
2023/06/10 02:17:29;;;;;;;6.68;3.83;;;;;;;12.95;100.00;101758.94;10336430;28;20042;-68
2023/06/10 02:22:30;;;;;;;13.05;5.00;;;;;;;12.88;100.00;101761.03;10356932;28;20039;-68
2023/06/10 02:27:31;;;;;;;9.80;3.58;;;;;;;12.80;100.00;101770.56;10322084;28;20126;-68
2023/06/10 02:32:31;;;;;;;7.22;3.50;;;;;;;12.70;100.00;101764.84;10341239;28;20226;-68
2023/06/10 02:37:32;;;;;;;8.32;4.07;;;;;;;12.64;100.00;101769.41;10320404;28;20061;-68
2023/06/10 02:42:33;;;;;;;11.40;4.88;;;;;;;12.53;100.00;101767.56;10356473;28;20106;-68
2023/06/10 02:47:33;;;;;;;9.10;3.60;;;;;;;12.57;100.00;101776.16;10361239;28;20038;-68
2023/06/10 02:52:34;;;;;;;9.52;4.88;;;;;;;12.45;100.00;101776.22;10318881;28;20030;-68
2023/06/10 02:57:34;;;;;;;13.00;3.97;;;;;;;12.39;100.00;101778.03;10327843;28;20077;-67
2023/06/10 03:02:36;;;;;;;11.15;4.38;;;;;;;12.27;100.00;101767.00;10314206;28;20137;-67
2023/06/10 03:07:37;;;;;;;11.80;4.88;;;;;;;12.22;100.00;101775.19;10333767;28;20056;-67
2023/06/10 03:12:38;;;;;;;9.25;5.00;;;;;;;12.15;100.00;101782.75;10378824;28;20034;-66
2023/06/10 03:17:38;;;;;;;10.30;4.97;;;;;;;12.11;100.00;101781.56;10376748;28;20030;-67
2023/06/10 03:22:40;;;;;;;12.85;4.65;;;;;;;11.82;100.00;101737.28;10369130;28;20026;-68
2023/06/10 03:27:42;;;;;;;14.18;5.32;;;;;;;12.05;100.00;101780.63;10374723;28;20439;-67
2023/06/10 03:32:44;;;;;;;11.73;4.78;;;;;;;12.09;100.00;101783.72;10352284;28;20030;-67
2023/06/10 03:37:44;;;;;;;12.35;5.78;;;;;;;12.14;100.00;101792.13;10377163;28;20053;-67
2023/06/10 03:42:45;;;;;;;10.95;5.93;;;;;;;12.15;100.00;101798.50;10365512;28;20041;-68
2023/06/10 03:47:47;;;;;;;11.20;5.45;;;;;;;12.16;100.00;101809.31;10365281;28;20045;-67
2023/06/10 03:52:48;;;;;;;15.00;5.50;;;;;;;12.19;100.00;101817.06;10352965;28;20026;-68
2023/06/10 03:57:49;;;;;;;14.15;6.25;;;;;;;12.22;100.00;101813.03;10357041;28;20045;-68
2023/06/10 04:02:52;;;;;;;17.88;5.88;;;;;;;12.22;100.00;101816.63;10377427;28;20038;-67
2023/06/10 04:07:53;;;;;;;13.60;5.63;;;;;;;12.26;100.00;101811.44;10362183;28;20038;-68
2023/06/10 04:12:55;;;;;;;12.68;5.85;;;;;;;12.30;100.00;101815.41;10366202;28;20041;-67
2023/06/10 04:17:56;;;;;;;13.05;6.75;;;;;;;12.37;100.00;101827.16;10362866;28;20049;-67
2023/06/10 04:22:56;;;;;;;12.30;7.10;;;;;;;12.44;100.00;101814.06;10331870;28;20096;-67
2023/06/10 04:27:57;;;;;;;12.43;7.55;;;;;;;12.58;100.00;101809.06;10338824;28;20589;-67
2023/06/10 04:32:58;;;;;;;13.05;6.57;;;;;;;12.72;100.00;101821.53;10339094;28;20049;-66
2023/06/10 04:37:59;;;;;;;14.52;7.43;;;;;;;12.81;100.00;101821.13;10332545;28;20057;-67
2023/06/10 04:43:00;;;;;;;19.63;7.80;;;;;;;12.86;100.00;101822.06;10339305;28;20564;-67
2023/06/10 04:48:00;;;;;;;16.80;7.38;;;;;;;12.92;100.00;101825.78;10351481;28;20053;-66
2023/06/10 04:53:01;;;;;;;13.02;7.13;;;;;;;12.96;100.00;101826.97;10342476;28;20364;-67
2023/06/10 04:58:01;;;;;;;16.08;7.95;;;;;;;13.04;100.00;101828.47;10347358;28;21494;-67
2023/06/10 05:03:02;;;;;;;14.90;7.63;;;;;;;13.07;100.00;101823.31;10361528;28;20046;-68
2023/06/10 05:08:02;;;;;;;21.08;7.72;;;;;;;13.18;100.00;101834.56;10374117;28;20041;-67
2023/06/10 05:13:03;;;;;;;17.63;6.32;;;;;;;13.25;100.00;101827.78;10364834;28;20512;-67
2023/06/10 05:18:03;;;;;;;16.33;6.47;;;;;;;13.33;100.00;101826.56;10330849;28;20038;-68
2023/06/10 05:23:04;;;;;;;12.93;6.55;;;;;;;13.36;100.00;101831.59;10335932;28;20038;-69
2023/06/10 05:28:04;;;;;;;16.23;7.00;;;;;;;13.51;100.00;101831.00;10324144;28;20273;-68
2023/06/10 05:33:05;;;;;;;16.33;5.90;;;;;;;13.50;100.00;101812.75;10333099;28;20050;-68
2023/06/10 05:38:05;;;;;;;14.45;6.60;;;;;;;13.66;100.00;101831.28;10339681;28;20042;-68
2023/06/10 05:43:06;;;;;;;12.73;7.40;;;;;;;13.78;100.00;101828.41;10340909;28;20034;-69
2023/06/10 05:48:06;;;;;;;11.02;5.65;;;;;;;13.93;100.00;101825.91;10358595;28;20050;-68
2023/06/10 05:53:14;;;;;;;14.70;5.38;;;;;;;14.22;100.00;101823.00;10341121;28;20042;-69
2023/06/10 05:58:15;;;;;;;9.63;5.40;;;;;;;14.59;100.00;101821.53;10341944;28;20045;-68
2023/06/10 06:03:15;;;;;;;13.15;5.43;;;;;;;14.90;100.00;101812.50;10330446;28;20034;-69
2023/06/10 06:08:18;;;;;;;14.05;5.10;;;;;;;15.42;100.00;101810.22;10323477;28;20061;-68
2023/06/10 06:13:18;;;;;;;9.63;5.47;;;;;;;15.75;100.00;101809.16;10343190;28;20030;-69
2023/06/10 06:18:19;;;;;;;11.23;5.53;;;;;;;16.13;100.00;101815.50;10383238;28;20402;-69
2023/06/10 06:23:19;;;;;;;9.57;5.30;;;;;;;16.45;100.00;101817.31;10381797;28;20510;-67
2023/06/10 06:28:21;;;;;;;8.48;5.05;;;;;;;16.65;100.00;101811.84;10384060;28;20115;-68
2023/06/10 06:33:22;;;;;;;9.73;5.20;;;;;;;16.86;100.00;101792.47;10380910;28;20041;-68
2023/06/10 06:38:22;;;;;;;10.73;5.47;;;;;;;16.97;100.00;101810.88;10381609;28;20280;-68
2023/06/10 06:43:23;;;;;;;10.80;5.22;;;;;;;17.21;100.00;101804.78;10382769;28;20042;-69
2023/06/10 06:48:24;;;;;;;7.32;3.97;;;;;;;17.37;100.00;101808.44;10381676;28;20034;-69
2023/06/10 06:53:24;;;;;;;7.70;4.03;;;;;;;17.53;100.00;101796.19;10380409;28;20041;-69
2023/06/10 06:58:25;;;;;;;11.30;3.95;;;;;;;17.85;100.00;101793.09;10380247;28;20034;-69
2023/06/10 07:03:25;;;;;;;6.60;3.92;;;;;;;18.06;100.00;101804.19;10380298;28;20034;-69
2023/06/10 07:08:26;;;;;;;8.95;3.90;;;;;;;18.19;100.00;101792.47;10382089;28;20061;-68
2023/06/10 07:13:26;;;;;;;9.48;3.20;;;;;;;18.37;100.00;101804.13;10364099;28;20037;-69
2023/06/10 07:18:27;;;;;;;11.35;3.28;;;;;;;18.55;100.00;101804.31;10360639;28;20042;-67
2023/06/10 07:23:27;;;;;;;5.88;3.42;;;;;;;18.86;100.00;101797.78;10371635;28;20163;-69
2023/06/10 07:28:28;;;;;;;7.18;3.80;;;;;;;18.98;100.00;101798.28;10380690;28;20619;-69
2023/06/10 07:33:29;;;;;;;5.35;3.25;;;;;;;19.15;100.00;101797.88;10369566;28;20030;-69
2023/06/10 07:38:29;;;;;;;11.23;3.50;;;;;;;19.29;100.00;101798.06;10365485;28;20053;-69
2023/06/10 07:43:30;;;;;;;5.00;3.22;;;;;;;19.44;100.00;101799.91;10356298;28;20038;-69
2023/06/10 07:48:30;;;;;;;9.15;3.72;;;;;;;19.69;100.00;101791.28;10366081;28;20038;-69
2023/06/10 07:53:30;;;;;;;8.15;3.70;;;;;;;19.87;100.00;101786.94;10359090;28;20034;-69
2023/06/10 07:58:31;;;;;;;6.85;3.25;;;;;;;20.13;100.00;101795.06;10355911;28;20062;-69
2023/06/10 08:03:31;;;;;;;8.90;3.50;;;;;;;20.30;100.00;101795.44;10360706;28;20038;-69
2023/06/10 08:08:32;;;;;;;6.15;3.28;;;;;;;20.43;100.00;101798.63;10355844;28;20031;-69
2023/06/10 08:13:32;;;;;;;7.35;3.13;;;;;;;20.69;100.00;101794.41;10356783;28;20092;-69
2023/06/10 08:18:33;;;;;;;8.43;3.50;;;;;;;20.88;100.00;101799.19;10357773;28;20038;-69
2023/06/10 08:23:34;;;;;;;5.55;3.35;;;;;;;21.03;100.00;101790.56;10355692;28;20045;-69
2023/06/10 08:28:35;;;;;;;8.68;3.22;;;;;;;21.02;100.00;101788.88;10357316;28;20034;-70
2023/06/10 08:33:35;;;;;;;7.82;3.35;;;;;;;21.23;100.00;101788.56;10358690;28;20038;-70
2023/06/10 08:38:36;;;;;;;8.25;3.30;;;;;;;21.48;100.00;101796.59;10352143;28;20069;-69
2023/06/10 08:43:44;;;;;;;8.07;3.10;;;;;;;21.69;100.00;101790.63;10344711;28;20594;-68
2023/06/10 08:48:44;;;;;;;6.57;3.10;;;;;;;21.58;100.00;101775.97;10360460;28;20054;-72
2023/06/10 08:54:04;;;;;;;5.93;2.97;;;;;;;21.69;100.00;101787.84;10336343;28;20026;-69
2023/06/10 08:59:04;;;;;;;5.93;3.30;;;;;;;21.90;100.00;101780.69;10365591;28;20069;-69
2023/06/10 09:04:05;;;;;;;7.47;3.92;;;;;;;22.12;100.00;101788.41;10360558;28;20406;-68
2023/06/10 09:09:06;;;;;;;9.73;3.13;;;;;;;22.28;100.00;101786.19;10351264;28;20053;-68
2023/06/10 09:14:07;;;;;;;8.20;2.88;;;;;;;22.24;100.00;101785.13;10335706;28;20043;-68
2023/06/10 09:19:10;;;;;;;6.93;3.45;;;;;;;22.43;100.00;101775.75;10352337;28;20046;-69
2023/06/10 09:24:10;;;;;;;6.10;3.10;;;;;;;22.51;100.00;101764.66;10361098;28;20133;-71
2023/06/10 09:29:11;;;;;;;7.55;3.25;;;;;;;22.42;100.00;101718.00;10332436;28;20031;-69
2023/06/10 09:34:13;;;;;;;9.50;3.45;;;;;;;23.02;100.00;101765.47;10353681;28;20498;-67
2023/06/10 09:39:17;;;;;;;7.57;2.85;;;;;;;23.24;100.00;101761.03;10360394;28;20076;-71
2023/06/10 09:44:19;;;;;;;8.13;3.40;;;;;;;23.37;100.00;101749.72;10354338;28;20030;-71
2023/06/10 09:49:20;;;;;;;7.43;2.95;;;;;;;23.30;100.00;101734.47;10323131;28;20045;-69
2023/06/10 09:54:21;;;;;;;6.53;2.97;;;;;;;23.43;100.00;101739.19;10354547;28;20030;-68
2023/06/10 09:59:29;;;;;;;9.70;3.17;;;;;;;23.49;100.00;101732.28;10355168;28;20030;-69
2023/06/10 10:04:29;;;;;;;8.70;2.85;;;;;;;23.79;100.00;101731.78;10356284;28;20031;-68
2023/06/10 10:09:30;;;;;;;7.28;3.25;;;;;;;24.07;100.00;101723.97;10355552;28;20053;-69
2023/06/10 10:14:31;;;;;;;6.05;3.03;;;;;;;24.20;100.00;101734.25;10367224;28;20034;-69
2023/06/10 10:19:32;;;;;;;5.55;2.70;;;;;;;24.31;100.00;101730.00;10334218;28;20042;-71
2023/06/10 10:24:48;;;;;;;4.70;2.45;;;;;;;24.40;100.00;101734.81;10355994;28;20090;-74
2023/06/10 10:29:51;;;;;;;6.63;3.67;;;;;;;24.69;100.00;101732.25;10361912;28;20098;-74
2023/06/10 10:35:19;;;;;;;10.15;2.85;;;;;;;24.74;99.55;101720.84;10369941;28;20042;-72
2023/06/10 10:40:22;;;;;;;5.25;2.72;;;;;;;25.00;100.00;101714.38;10373254;28;20073;-71
2023/06/10 10:45:22;;;;;;;5.18;2.65;;;;;;;25.33;95.62;101711.03;10380787;28;20030;-77
2023/06/10 10:50:23;;;;;;;7.53;2.75;;;;;;;25.68;98.01;101705.31;10363919;28;20029;-78
2023/06/10 10:55:24;;;;;;;4.07;2.40;;;;;;;25.93;93.63;101692.28;10364720;28;20033;-78
2023/06/10 11:00:45;;;;;;;6.38;3.15;;;;;;;25.85;92.14;101688.28;10380499;28;20069;-72
2023/06/10 11:05:49;;;;;;;6.93;2.97;;;;;;;25.72;95.37;101706.28;10381677;28;20026;-69
2023/06/10 11:10:53;;;;;;;7.13;2.90;;;;;;;25.74;94.28;101698.31;10379795;28;20090;-72
2023/06/10 11:15:57;;;;;;;7.05;2.85;;;;;;;25.89;91.38;101691.28;10380872;28;20037;-71
2023/06/10 11:21:02;;;;;;;5.65;2.63;;;;;;;25.26;87.95;101674.06;10381390;28;20046;-73
2023/06/10 11:26:12;;;;;;;5.57;2.97;;;;;;;25.28;88.05;101675.41;10389531;28;20038;-67
2023/06/10 11:31:22;;;;;;;4.03;2.33;;;;;;;25.42;92.69;101688.47;10358304;28;20058;-72
2023/06/10 11:36:23;;;;;;;5.15;2.50;;;;;;;25.90;91.34;101678.84;10348713;28;20324;-72
2023/06/10 11:41:27;;;;;;;6.60;2.75;;;;;;;26.46;90.77;101673.84;10339634;28;20042;-67
2023/06/10 11:46:28;;;;;;;7.18;2.60;;;;;;;26.86;88.09;101664.91;10366368;28;20105;-72
2023/06/10 11:51:37;;;;;;;6.30;2.80;;;;;;;27.36;88.95;101666.72;10360417;28;20429;-72
2023/06/10 11:56:37;;;;;;;4.50;2.83;;;;;;;27.74;88.23;101664.78;10358601;28;20027;-72
2023/06/10 12:01:43;;;;;;;5.68;3.05;;;;;;;28.09;83.04;101659.50;10360525;28;20042;-72
2023/06/10 12:06:48;;;;;;;4.40;2.85;;;;;;;28.30;83.73;101662.19;10357380;28;20061;-73
2023/06/10 12:11:52;;;;;;;3.78;2.30;;;;;;;28.97;80.94;101658.94;10356686;28;20042;-74
2023/06/10 12:16:52;;;;;;;8.27;3.40;;;;;;;29.21;79.99;101652.34;10361760;28;20049;-72
2023/06/10 12:21:53;;;;;;;8.73;3.45;;;;;;;29.22;76.66;101647.50;10355337;28;20056;-72
2023/06/10 12:26:53;;;;;;;4.65;3.05;;;;;;;29.25;77.19;101643.91;10335488;28;20062;-71
2023/06/10 12:31:58;;;;;;;4.57;2.92;;;;;;;29.60;77.08;101634.69;10336166;28;20041;-72
2023/06/10 12:37:03;;;;;;;3.70;2.03;;;;;;;30.33;73.75;101644.63;10320526;28;20106;-72
2023/06/10 12:42:05;;;;;;;6.20;2.90;;;;;;;30.45;72.91;101637.94;10337935;28;20294;-72
2023/06/10 12:47:09;;;;;;;8.57;3.50;;;;;;;30.67;74.08;101625.84;10358450;28;20030;-71
2023/06/10 12:52:10;;;;;;;5.30;2.75;;;;;;;30.74;73.53;101620.31;10376651;28;20046;-70
2023/06/10 12:57:11;;;;;;;4.70;2.80;;;;;;;31.05;71.09;101629.03;10377189;28;20034;-71
2023/06/10 13:02:12;;;;;;;6.05;3.05;;;;;;;31.65;69.51;101611.44;10377552;28;20038;-72
2023/06/10 13:07:13;;;;;;;5.55;2.65;;;;;;;31.86;67.67;101594.69;10377430;28;20081;-73
2023/06/10 13:12:13;;;;;;;6.85;2.72;;;;;;;31.94;68.09;101607.03;10376357;28;20042;-72
2023/06/10 13:17:14;;;;;;;7.20;2.45;;;;;;;31.82;62.51;101595.84;10376101;28;20068;-73
2023/06/10 13:22:15;;;;;;;3.60;2.42;;;;;;;31.57;61.40;101599.94;10368099;28;20038;-72
2023/06/10 13:27:15;;;;;;;4.47;2.70;;;;;;;31.47;57.82;101577.81;10374647;28;20034;-71
2023/06/10 13:32:16;;;;;;;6.85;2.17;;;;;;;31.50;57.10;101570.53;10376483;28;20186;-72
2023/06/10 13:37:19;;;;;;;6.57;2.20;;;;;;;31.12;55.91;101575.97;10375341;28;20070;-72
2023/06/10 13:42:20;;;;;;;2.83;1.60;;;;;;;31.90;54.23;101569.13;10377342;28;20042;-71
2023/06/10 13:47:20;;;;;;;4.68;2.53;;;;;;;32.32;55.13;101568.91;10377523;28;20038;-71
2023/06/10 13:52:21;;;;;;;2.75;2.30;;;;;;;32.49;55.23;101569.53;10376935;28;20044;-72
2023/06/10 13:57:21;;;;;;;6.95;2.25;;;;;;;32.66;54.50;101551.00;10376238;28;20052;-71
2023/06/10 14:02:22;;;;;;;3.45;1.98;;;;;;;32.93;53.86;101554.53;10382661;28;20033;-72
2023/06/10 14:07:22;;;;;;;3.50;2.03;;;;;;;33.17;53.37;101559.69;10382340;28;20097;-71
2023/06/10 14:12:23;;;;;;;5.18;2.20;;;;;;;33.33;52.91;101552.91;10382785;28;20383;-72
2023/06/10 14:17:23;;;;;;;5.00;1.95;;;;;;;33.63;52.65;101552.75;10362556;28;20525;-71
2023/06/10 14:22:25;;;;;;;4.10;1.95;;;;;;;33.80;51.84;101559.81;10355733;28;20129;-71
2023/06/10 14:27:26;;;;;;;4.15;1.83;;;;;;;33.86;51.76;101555.38;10340704;28;20414;-70
2023/06/10 14:32:26;;;;;;;5.57;1.70;;;;;;;34.09;50.42;101545.69;10322525;28;20065;-74
2023/06/10 14:37:27;;;;;;;3.28;2.13;;;;;;;34.47;48.38;101531.97;10383627;28;20038;-69
2023/06/10 14:42:27;;;;;;;4.75;2.05;;;;;;;34.74;49.08;101535.34;10375133;28;20078;-72
2023/06/10 14:47:28;;;;;;;3.72;2.13;;;;;;;34.82;46.57;101527.59;10381898;28;20648;-72
2023/06/10 14:52:28;;;;;;;3.83;2.30;;;;;;;34.90;47.82;101541.50;10422628;28;20044;-72
2023/06/10 14:57:29;;;;;;;3.38;2.00;;;;;;;35.24;46.89;101534.59;10405333;28;20037;-72
2023/06/10 15:02:29;;;;;;;2.38;1.75;;;;;;;35.32;45.23;101516.19;10419340;28;20034;-72
2023/06/10 15:07:30;;;;;;;5.38;1.60;;;;;;;34.45;42.39;101511.56;10412172;28;20040;-71
2023/06/10 15:12:30;;;;;;;4.63;1.85;;;;;;;34.49;42.52;101495.22;10401309;28;20044;-71
2023/06/10 15:17:31;;;;;;;4.50;2.03;;;;;;;34.90;43.07;101504.31;10394469;28;20508;-72
2023/06/10 15:22:31;;;;;;;2.67;2.08;;;;;;;34.96;43.72;101493.28;10379338;28;20064;-69
2023/06/10 15:27:31;;;;;;;4.10;1.95;;;;;;;35.29;42.09;101480.63;10368656;28;20050;-74
2023/06/10 15:32:32;;;;;;;3.10;1.90;;;;;;;34.96;42.17;101484.69;10393275;28;20038;-73
2023/06/10 15:37:32;;;;;;;4.72;2.03;;;;;;;35.31;41.86;101489.63;10386486;28;20050;-72
2023/06/10 15:42:33;;;;;;;2.65;1.60;;;;;;;35.48;41.01;101470.75;10331592;28;20035;-72
2023/06/10 15:47:33;;;;;;;3.53;1.83;;;;;;;35.63;40.54;101471.53;10326840;28;20038;-72
2023/06/10 15:52:34;;;;;;;3.47;2.13;;;;;;;35.91;39.86;101464.94;10322589;28;20051;-73
2023/06/10 15:57:34;;;;;;;3.38;1.65;;;;;;;35.96;38.79;101466.53;10347641;28;20050;-72
2023/06/10 16:02:35;;;;;;;3.75;1.98;;;;;;;36.06;40.01;101464.88;10323357;28;20034;-72
2023/06/10 16:07:35;;;;;;;3.17;1.80;;;;;;;36.15;37.97;101450.91;10374208;28;20059;-72
2023/06/10 16:12:36;;;;;;;3.90;1.58;;;;;;;36.41;37.07;101451.59;10381562;28;20041;-72
2023/06/10 16:17:37;;;;;;;2.45;1.67;;;;;;;36.80;38.25;101445.59;10390046;28;20030;-72
2023/06/10 16:22:39;;;;;;;3.85;1.77;;;;;;;36.99;37.58;101447.06;10382826;28;20039;-73
2023/06/10 16:27:39;;;;;;;4.15;1.75;;;;;;;37.03;36.58;101447.84;10360287;28;20034;-73
2023/06/10 16:32:40;;;;;;;3.85;2.10;;;;;;;37.28;36.92;101446.81;10415888;28;20120;-72
2023/06/10 16:37:41;;;;;;;3.03;1.92;;;;;;;36.85;36.72;101452.94;10409521;28;20049;-71
2023/06/10 16:42:41;;;;;;;4.85;1.73;;;;;;;36.06;36.30;101447.69;10376419;28;20061;-72
2023/06/10 16:47:42;;;;;;;5.68;1.80;;;;;;;34.51;36.93;101435.59;10392859;28;20108;-73
2023/06/10 16:52:42;;;;;;;3.25;1.40;;;;;;;33.32;38.94;101439.97;10415324;28;20045;-73
2023/06/10 16:57:43;;;;;;;4.95;1.60;;;;;;;31.65;42.88;101458.56;10416349;28;20045;-69
2023/06/10 17:02:43;;;;;;;3.40;1.63;;;;;;;30.32;44.12;101452.63;10393940;28;20033;-75
2023/06/10 17:07:45;;;;;;;3.58;1.77;;;;;;;29.31;44.74;101461.78;10384985;28;20026;-70
2023/06/10 17:12:46;;;;;;;3.97;1.67;;;;;;;28.88;46.47;101474.06;10399918;28;20042;-69
2023/06/10 17:17:47;;;;;;;4.93;1.30;;;;;;;28.45;45.35;101468.03;10431490;28;20072;-70
2023/06/10 17:22:47;;;;;;;2.90;1.60;;;;;;;27.89;46.92;101480.19;10400857;28;20947;-70
2023/06/10 17:27:48;;;;;;;2.83;1.42;;;;;;;27.33;46.27;101466.72;10388995;28;20434;-69
2023/06/10 17:32:49;;;;;;;6.03;1.35;;;;;;;27.04;47.62;101473.41;10389812;28;20444;-70
2023/06/10 17:37:50;;;;;;;6.28;1.48;;;;;;;26.59;47.31;101474.28;10391970;28;20418;-70
2023/06/10 17:42:51;;;;;;;7.55;2.08;;;;;;;26.40;48.29;101482.41;10369270;28;20054;-72
2023/06/10 17:47:52;;;;;;;5.28;1.55;;;;;;;26.10;48.19;101479.72;10331176;28;20440;-68
2023/06/10 17:52:52;;;;;;;4.03;1.92;;;;;;;25.96;50.09;101488.47;10339793;28;20046;-70
2023/06/10 17:57:52;;;;;;;4.00;1.48;;;;;;;25.69;47.59;101472.88;10307263;28;20049;-71
2023/06/10 18:02:53;;;;;;;4.43;1.38;;;;;;;25.46;49.50;101484.47;10373239;28;20034;-69
2023/06/10 18:07:53;;;;;;;2.30;1.50;;;;;;;25.32;49.35;101478.25;10380679;28;20034;-70
2023/06/10 18:12:54;;;;;;;2.83;1.90;;;;;;;25.25;51.65;101494.88;10381363;28;20038;-71
2023/06/10 18:17:54;;;;;;;3.15;1.38;;;;;;;25.13;50.81;101482.31;10404888;28;20048;-74
2023/06/10 18:22:55;;;;;;;3.53;1.38;;;;;;;25.07;53.58;101502.56;10396232;28;20044;-69
2023/06/10 18:27:55;;;;;;;5.57;1.95;;;;;;;24.91;54.96;101507.94;10394818;28;20053;-72
2023/06/10 18:32:56;;;;;;;3.35;1.40;;;;;;;24.79;56.36;101516.25;10397232;28;20712;-70
2023/06/10 18:37:56;;;;;;;3.63;1.45;;;;;;;24.65;59.79;101519.28;10367630;28;20041;-72
2023/06/10 18:42:57;;;;;;;5.50;1.33;;;;;;;24.53;62.58;101532.03;10405068;28;20049;-73
2023/06/10 18:47:58;;;;;;;3.95;1.23;;;;;;;24.26;62.88;101527.56;10358264;28;20046;-70
2023/06/10 18:52:59;;;;;;;5.65;1.52;;;;;;;24.19;65.05;101535.69;10350677;28;20042;-68
2023/06/10 18:57:59;;;;;;;4.18;1.65;;;;;;;23.96;68.39;101544.28;10366978;28;20750;-71
2023/06/10 19:03:00;;;;;;;7.25;2.28;;;;;;;23.75;72.35;101551.63;10348710;28;20049;-70
2023/06/10 19:08:01;;;;;;;6.05;1.95;;;;;;;23.50;76.96;101568.13;10362598;28;20486;-69
2023/06/10 19:13:01;;;;;;;4.82;1.98;;;;;;;23.34;81.48;101569.72;10376329;28;20038;-67
2023/06/10 19:18:02;;;;;;;7.43;1.58;;;;;;;23.16;84.98;101575.25;10380028;28;20050;-68
2023/06/10 19:23:03;;;;;;;7.80;2.08;;;;;;;22.97;89.15;101574.63;10389699;28;20034;-67
2023/06/10 19:28:06;;;;;;;5.70;1.88;;;;;;;22.77;96.62;101585.22;10367811;28;20038;-70
2023/06/10 19:33:07;;;;;;;5.85;1.88;;;;;;;22.60;100.00;101593.53;10374309;28;20097;-66
2023/06/10 19:38:08;;;;;;;5.05;1.85;;;;;;;22.45;100.00;101599.50;10401371;28;20033;-68
2023/06/10 19:43:08;;;;;;;4.65;2.10;;;;;;;22.26;100.00;101599.69;10383262;28;20053;-70
2023/06/10 19:48:09;;;;;;;5.88;2.17;;;;;;;22.05;100.00;101607.69;10381899;28;20041;-68
2023/06/10 19:53:10;;;;;;;7.82;3.28;;;;;;;21.84;100.00;101619.34;10386672;28;20026;-69
2023/06/10 19:58:11;;;;;;;8.07;2.53;;;;;;;21.70;100.00;101621.34;10390724;28;20490;-70
2023/06/10 20:03:11;;;;;;;9.32;2.97;;;;;;;21.47;100.00;101621.22;10385677;28;20034;-67
2023/06/10 20:08:13;;;;;;;6.65;2.88;;;;;;;21.28;100.00;101632.47;10400020;28;20069;-67
2023/06/10 20:13:13;;;;;;;7.90;2.67;;;;;;;21.06;100.00;101633.16;10416261;28;20041;-67
2023/06/10 20:18:14;;;;;;;5.68;2.13;;;;;;;20.94;100.00;101632.84;10386017;28;20041;-68
2023/06/10 20:23:14;;;;;;;6.63;2.58;;;;;;;20.77;100.00;101644.56;10416012;28;20041;-68
2023/06/10 20:28:15;;;;;;;7.15;2.50;;;;;;;20.66;100.00;101649.50;10412795;28;20048;-69
2023/06/10 20:33:15;;;;;;;8.75;2.60;;;;;;;20.53;100.00;101653.88;10412753;28;20034;-66
2023/06/10 20:38:16;;;;;;;7.60;2.60;;;;;;;20.43;100.00;101656.00;10416953;28;20033;-68
2023/06/10 20:43:16;;;;;;;6.90;3.00;;;;;;;20.25;100.00;101640.88;10397730;28;20087;-67
2023/06/10 20:48:17;;;;;;;6.30;3.25;;;;;;;20.26;100.00;101662.94;10413488;28;20057;-67
2023/06/10 20:53:18;;;;;;;8.63;3.15;;;;;;;20.18;100.00;101669.19;10402243;28;20041;-68
2023/06/10 20:58:19;;;;;;;8.90;2.97;;;;;;;19.93;100.00;101651.63;10411547;28;20034;-67
2023/06/10 21:03:20;;;;;;;9.30;3.80;;;;;;;19.99;100.00;101671.09;10404976;28;20033;-67
2023/06/10 21:08:20;;;;;;;8.98;3.35;;;;;;;19.93;100.00;101671.19;10411014;28;20033;-70
2023/06/10 21:13:21;;;;;;;11.60;3.33;;;;;;;19.85;100.00;101677.44;10410262;28;20121;-67
2023/06/10 21:18:21;;;;;;;8.57;4.35;;;;;;;19.80;100.00;101673.84;10414768;28;20093;-68
2023/06/10 21:23:22;;;;;;;11.10;3.70;;;;;;;19.75;100.00;101683.13;10414450;28;20549;-67
2023/06/10 21:28:22;;;;;;;12.68;4.65;;;;;;;19.67;100.00;101673.41;10414430;28;20130;-68
2023/06/10 21:33:23;;;;;;;12.40;6.00;;;;;;;19.60;100.00;101680.50;10415049;28;20025;-68
2023/06/10 21:38:24;;;;;;;7.32;5.30;;;;;;;19.45;100.00;101685.13;10413725;28;20045;-68
2023/06/10 21:43:26;;;;;;;8.63;5.30;;;;;;;19.31;100.00;101684.13;10411436;28;20116;-68
2023/06/10 21:48:26;;;;;;;8.27;4.60;;;;;;;19.20;100.00;101682.56;10386908;28;20053;-68
2023/06/10 21:53:27;;;;;;;11.05;4.72;;;;;;;19.11;100.00;101685.97;10375363;28;20026;-68
2023/06/10 21:58:27;;;;;;;10.25;4.70;;;;;;;19.04;100.00;101681.84;10369136;28;20037;-69
2023/06/10 22:03:27;;;;;;;12.60;4.45;;;;;;;18.93;100.00;101679.16;10361250;28;20388;-67
2023/06/10 22:08:28;;;;;;;9.07;4.45;;;;;;;18.79;100.00;101680.09;10396513;28;20068;-68
2023/06/10 22:13:28;;;;;;;8.25;3.88;;;;;;;18.81;100.00;101675.91;10396015;28;20049;-68
2023/06/10 22:18:29;;;;;;;10.70;4.30;;;;;;;18.81;100.00;101687.06;10398499;28;20038;-67
2023/06/10 22:23:30;;;;;;;8.48;3.95;;;;;;;18.81;100.00;101681.50;10396671;28;20040;-68
2023/06/10 22:28:30;;;;;;;7.88;4.63;;;;;;;18.80;100.00;101684.56;10423018;28;20065;-68
2023/06/10 22:33:30;;;;;;;12.27;4.60;;;;;;;18.79;100.00;101682.88;10391546;28;20029;-67
2023/06/10 22:38:31;;;;;;;9.20;4.35;;;;;;;18.78;100.00;101684.81;10391276;28;20038;-68
2023/06/10 22:43:31;;;;;;;11.88;4.65;;;;;;;18.78;100.00;101683.97;10404018;28;20041;-67
2023/06/10 22:48:33;;;;;;;11.90;4.35;;;;;;;18.75;100.00;101677.88;10384977;28;20045;-68